createdAt,value
2023-03-21T00:01:38.783Z,3.50
2023-03-21T00:04:06.383Z,4.28
2023-03-21T00:06:33.722Z,3.53
2023-03-21T00:09:01.073Z,3.70
2023-03-21T00:11:28.612Z,3.88
2023-03-21T00:14:02.721Z,3.33
2023-03-21T00:16:31.322Z,3.83
2023-03-21T00:19:03.532Z,4.28
2023-03-21T00:21:55.295Z,3.88
2023-03-21T00:24:19.856Z,4.28
2023-03-21T00:26:47.278Z,4.38
2023-03-21T00:29:14.712Z,4.00
2023-03-21T00:31:42.028Z,4.43
2023-03-21T00:36:38.105Z,4.15
2023-03-21T00:39:08.161Z,3.80
2023-03-21T00:41:42.629Z,4.43
2023-03-21T00:44:16.004Z,4.57
2023-03-21T00:46:57.076Z,4.53
2023-03-21T00:49:34.229Z,4.68
2023-03-21T00:52:17.107Z,4.55
2023-03-21T00:54:47.722Z,4.63
2023-03-21T00:57:15.106Z,5.25
2023-03-21T00:59:42.482Z,4.80
2023-03-21T01:02:15.213Z,4.40
2023-03-21T01:04:42.847Z,4.78
2023-03-21T01:07:10.717Z,4.93
2023-03-21T01:09:39.128Z,4.35
2023-03-21T01:12:06.545Z,4.72
2023-03-21T01:14:33.946Z,4.85
2023-03-21T01:17:01.907Z,4.95
2023-03-21T01:19:40.990Z,4.30
2023-03-21T01:22:16.506Z,4.65
2023-03-21T01:24:53.801Z,4.10
2023-03-21T01:27:23.322Z,4.90
2023-03-21T01:29:51.643Z,4.63
2023-03-21T01:32:19.135Z,4.15
2023-03-21T01:34:46.715Z,4.85
2023-03-21T01:37:14.773Z,3.72
2023-03-21T01:39:47.484Z,4.28
2023-03-21T01:42:15.691Z,4.00
2023-03-21T01:44:48.314Z,4.88
2023-03-21T01:47:16.220Z,4.28
2023-03-21T01:49:50.077Z,3.80
2023-03-21T01:52:40.047Z,4.53
2023-03-21T01:55:14.895Z,3.80
2023-03-21T01:58:05.269Z,2.88
2023-03-21T02:00:43.979Z,3.58
2023-03-21T02:03:35.992Z,3.80
2023-03-21T02:06:11.773Z,3.80
2023-03-21T02:08:42.714Z,3.63
2023-03-21T02:11:14.773Z,3.00
2023-03-21T02:13:44.033Z,3.63
2023-03-21T02:16:38.057Z,3.38
2023-03-21T02:19:25.967Z,3.40
2023-03-21T02:22:16.623Z,3.17
2023-03-21T02:25:01.495Z,3.35
2023-03-21T02:27:40.604Z,3.47
2023-03-21T02:30:13.024Z,3.67
2023-03-21T02:32:54.355Z,3.25
2023-03-21T02:35:23.468Z,3.00
2023-03-21T02:38:00.042Z,3.10
2023-03-21T02:40:34.971Z,3.00
2023-03-21T02:43:22.661Z,3.72
2023-03-21T02:46:00.857Z,2.80
2023-03-21T02:48:49.905Z,3.03
2023-03-21T02:51:23.115Z,3.10
2023-03-21T02:54:23.677Z,3.40
2023-03-21T02:56:49.344Z,3.00
2023-03-21T02:59:20.346Z,3.47
2023-03-21T03:01:47.933Z,3.38
2023-03-21T03:04:18.348Z,3.47
2023-03-21T03:07:04.905Z,2.90
2023-03-21T03:09:47.635Z,3.22
2023-03-21T03:12:18.074Z,3.08
2023-03-21T03:15:03.016Z,3.00
2023-03-21T03:17:51.324Z,2.60
2023-03-21T03:20:23.876Z,3.65
2023-03-21T03:22:59.430Z,3.35
2023-03-21T03:25:42.522Z,3.55
2023-03-21T03:28:17.946Z,3.33
2023-03-21T03:31:01.245Z,3.30
2023-03-21T03:33:41.951Z,3.90
2023-03-21T03:36:25.037Z,4.13
2023-03-21T03:39:01.995Z,3.90
2023-03-21T03:42:03.016Z,3.28
2023-03-21T03:44:30.192Z,2.97
2023-03-21T03:47:08.603Z,3.35
2023-03-21T03:49:46.921Z,3.20
2023-03-21T03:52:21.626Z,2.63
2023-03-21T03:54:55.822Z,2.83
2023-03-21T03:57:27.246Z,3.28
2023-03-21T03:59:56.392Z,3.10
2023-03-21T04:02:27.362Z,3.00
2023-03-21T04:04:58.015Z,2.67
2023-03-21T04:07:25.805Z,2.70
2023-03-21T04:09:55.729Z,3.15
2023-03-21T04:12:23.225Z,2.80
2023-03-21T04:15:11.362Z,3.20
2023-03-21T04:17:45.650Z,2.90
2023-03-21T04:20:20.941Z,2.78
2023-03-21T04:22:56.596Z,2.42
2023-03-21T04:25:33.090Z,3.13
2023-03-21T04:28:02.771Z,3.60
2023-03-21T04:30:51.944Z,3.00
2023-03-21T04:33:26.688Z,3.10
2023-03-21T04:35:59.273Z,3.00
2023-03-21T04:38:34.036Z,3.10
2023-03-21T04:41:04.668Z,3.25
2023-03-21T04:43:32.228Z,3.20
2023-03-21T04:45:59.891Z,3.40
2023-03-21T04:48:28.052Z,3.30
2023-03-21T04:50:56.616Z,3.10
2023-03-21T04:53:24.032Z,3.40
2023-03-21T04:55:55.250Z,3.63
2023-03-21T04:58:24.183Z,4.15
2023-03-21T05:00:53.264Z,3.97
2023-03-21T05:03:21.605Z,3.83
2023-03-21T05:05:49.478Z,4.75
2023-03-21T05:08:19.145Z,3.75
2023-03-21T05:10:46.461Z,4.22
2023-03-21T05:13:13.992Z,4.40
2023-03-21T05:15:41.417Z,4.20
2023-03-21T05:18:10.410Z,4.20
2023-03-21T05:20:43.026Z,3.85
2023-03-21T05:23:11.860Z,4.53
2023-03-21T05:25:40.621Z,4.00
2023-03-21T05:28:18.590Z,4.80
2023-03-21T05:30:47.440Z,4.00
2023-03-21T05:33:15.443Z,4.40
2023-03-21T05:35:43.112Z,5.00
2023-03-21T05:38:12.603Z,4.50
2023-03-21T05:40:51.036Z,4.10
2023-03-21T05:43:18.971Z,4.00
2023-03-21T05:45:48.544Z,4.07
2023-03-21T05:48:18.604Z,3.92
2023-03-21T05:50:47.611Z,4.30
2023-03-21T05:53:20.176Z,4.50
2023-03-21T05:55:48.673Z,5.00
2023-03-21T05:58:31.821Z,4.40
2023-03-21T06:00:59.959Z,4.53
2023-03-21T06:03:32.902Z,4.93
2023-03-21T06:06:03.702Z,4.80
2023-03-21T06:08:32.669Z,4.00
2023-03-21T06:11:01.238Z,4.65
2023-03-21T06:13:31.712Z,4.50
2023-03-21T06:15:59.883Z,4.57
2023-03-21T06:18:28.280Z,4.63
2023-03-21T06:21:03.594Z,5.28
2023-03-21T06:23:32.863Z,5.10
2023-03-21T06:26:00.419Z,4.30
2023-03-21T06:28:28.284Z,5.07
2023-03-21T06:30:55.717Z,5.30
2023-03-21T06:33:26.611Z,5.28
2023-03-21T06:35:55.410Z,5.22
2023-03-21T06:38:24.289Z,5.25
2023-03-21T06:40:52.548Z,4.65
2023-03-21T06:43:22.092Z,4.75
2023-03-21T06:45:50.922Z,4.95
2023-03-21T06:48:18.343Z,4.90
2023-03-21T06:50:51.354Z,5.45
2023-03-21T06:53:25.233Z,4.97
2023-03-21T06:56:14.604Z,5.00
2023-03-21T06:58:43.664Z,5.18
2023-03-21T07:01:19.640Z,5.20
2023-03-21T07:03:57.898Z,4.78
2023-03-21T07:06:27.620Z,4.40
2023-03-21T07:08:56.654Z,4.90
2023-03-21T07:11:25.428Z,4.90
2023-03-21T07:13:53.750Z,4.78
2023-03-21T07:16:21.948Z,5.25
2023-03-21T07:18:49.343Z,4.82
2023-03-21T07:21:17.324Z,4.85
2023-03-21T07:23:45.596Z,4.63
2023-03-21T07:26:13.195Z,5.75
2023-03-21T07:28:41.005Z,5.63
2023-03-21T07:31:09.442Z,4.60
2023-03-21T07:33:36.961Z,4.43
2023-03-21T07:36:04.673Z,4.15
2023-03-21T07:38:32.040Z,5.15
2023-03-21T07:41:00.968Z,4.38
2023-03-21T07:43:31.833Z,5.18
2023-03-21T07:46:00.210Z,5.68
2023-03-21T07:48:28.624Z,5.20
2023-03-21T07:50:56.552Z,5.93
2023-03-21T07:53:23.847Z,5.18
2023-03-21T07:55:54.063Z,5.13
2023-03-21T07:58:21.998Z,5.10
2023-03-21T08:00:49.588Z,5.60
2023-03-21T08:03:16.950Z,5.70
2023-03-21T08:05:45.201Z,5.72
2023-03-21T08:08:12.551Z,5.50
2023-03-21T08:10:40.093Z,5.53
2023-03-21T08:13:07.461Z,4.93
2023-03-21T08:15:34.893Z,5.15
2023-03-21T08:18:02.248Z,5.40
2023-03-21T08:20:29.722Z,5.35
2023-03-21T08:22:57.233Z,6.47
2023-03-21T08:25:24.670Z,5.45
2023-03-21T08:27:52.144Z,6.07
2023-03-21T08:30:22.151Z,5.60
2023-03-21T08:32:49.524Z,5.22
2023-03-21T08:35:18.937Z,6.25
2023-03-21T08:37:46.138Z,5.82
2023-03-21T08:40:17.913Z,5.95
2023-03-21T08:42:46.686Z,5.63
2023-03-21T08:45:15.595Z,6.03
2023-03-21T08:47:43.205Z,6.22
2023-03-21T08:50:14.430Z,5.70
2023-03-21T08:52:41.914Z,5.68
2023-03-21T08:55:10.034Z,5.85
2023-03-21T08:57:37.343Z,5.15
2023-03-21T09:00:12.768Z,5.30
2023-03-21T09:02:41.779Z,5.93
2023-03-21T09:05:12.226Z,5.65
2023-03-21T09:07:41.242Z,5.95
2023-03-21T09:10:20.957Z,6.07
2023-03-21T09:12:52.432Z,6.30
2023-03-21T09:15:22.179Z,5.32
2023-03-21T09:17:53.353Z,5.88
2023-03-21T09:20:26.527Z,5.80
2023-03-21T09:22:54.348Z,5.30
2023-03-21T09:25:21.733Z,5.60
2023-03-21T09:27:49.495Z,5.20
2023-03-21T09:30:20.186Z,4.63
2023-03-21T09:32:49.164Z,4.70
2023-03-21T09:35:19.163Z,4.50
2023-03-21T09:37:48.421Z,4.65
2023-03-21T09:40:20.174Z,4.53
2023-03-21T09:43:00.030Z,4.68
2023-03-21T09:45:38.695Z,4.15
2023-03-21T09:48:15.367Z,5.18
2023-03-21T09:50:43.411Z,5.00
2023-03-21T09:53:21.105Z,5.68
2023-03-21T09:55:48.556Z,5.93
2023-03-21T09:58:26.292Z,5.32
2023-03-21T10:01:02.028Z,6.22
2023-03-21T10:03:35.132Z,4.78
2023-03-21T10:06:11.472Z,4.60
2023-03-21T10:08:41.918Z,5.00
2023-03-21T10:11:18.407Z,5.03
2023-03-21T10:13:51.159Z,4.75
2023-03-21T10:16:25.885Z,4.07
2023-03-21T10:18:55.723Z,4.75
2023-03-21T10:21:56.609Z,5.63
2023-03-21T10:24:17.664Z,5.40
2023-03-21T10:26:47.091Z,4.63
2023-03-21T10:29:17.278Z,5.28
2023-03-21T10:31:46.925Z,4.97
2023-03-21T10:34:19.031Z,4.75
2023-03-21T10:36:46.939Z,4.80
2023-03-21T10:39:27.631Z,5.38
2023-03-21T10:41:55.603Z,4.50
2023-03-21T10:44:30.853Z,5.20
2023-03-21T10:47:01.465Z,5.07
2023-03-21T10:49:40.186Z,4.45
2023-03-21T10:52:11.243Z,4.03
2023-03-21T10:54:38.682Z,3.95
2023-03-21T10:57:09.634Z,4.32
2023-03-21T10:59:41.060Z,4.35
2023-03-21T11:02:19.741Z,4.25
2023-03-21T11:04:48.431Z,4.00
2023-03-21T11:07:16.121Z,4.50
2023-03-21T11:09:47.280Z,4.13
2023-03-21T11:12:17.983Z,4.32
2023-03-21T11:14:48.364Z,4.15
2023-03-21T11:17:21.824Z,4.10
2023-03-21T11:19:52.451Z,3.17
2023-03-21T11:22:23.456Z,3.80
2023-03-21T11:24:54.559Z,3.78
2023-03-21T11:27:21.957Z,3.47
2023-03-21T11:29:52.235Z,3.50
2023-03-21T11:32:25.233Z,3.83
2023-03-21T11:34:59.636Z,3.95
2023-03-21T11:37:32.885Z,3.90
2023-03-21T11:40:04.667Z,4.03
2023-03-21T11:42:39.779Z,3.80
2023-03-21T11:45:14.218Z,3.60
2023-03-21T11:47:41.686Z,3.60
2023-03-21T11:50:16.740Z,3.63
2023-03-21T11:52:49.991Z,5.38
2023-03-21T11:55:26.865Z,4.70
2023-03-21T11:58:13.980Z,5.93
2023-03-21T12:00:47.135Z,4.85
2023-03-21T12:03:48.755Z,4.45
2023-03-21T12:06:25.310Z,4.00
2023-03-21T12:09:02.345Z,5.10
2023-03-21T12:11:40.105Z,6.57
2023-03-21T12:14:16.718Z,5.35
2023-03-21T12:16:53.880Z,5.45
2023-03-21T12:19:45.724Z,6.38
2023-03-21T12:22:21.151Z,6.40
2023-03-21T12:24:55.406Z,5.88
2023-03-21T12:27:32.483Z,5.63
2023-03-21T12:30:24.373Z,4.85
2023-03-21T12:32:55.143Z,5.20
2023-03-21T12:35:29.921Z,4.22
2023-03-21T12:38:04.136Z,4.95
2023-03-21T12:40:44.591Z,4.40
2023-03-21T12:43:15.011Z,3.83
2023-03-21T12:45:47.647Z,4.38
2023-03-21T12:48:21.333Z,3.63
2023-03-21T12:50:53.939Z,3.47
2023-03-21T12:53:43.320Z,2.85
2023-03-21T12:56:15.712Z,3.35
2023-03-21T12:58:48.431Z,3.50
2023-03-21T13:01:18.145Z,3.88
2023-03-21T13:03:52.430Z,3.65
2023-03-21T13:06:24.241Z,3.92
2023-03-21T13:08:58.300Z,3.50
2023-03-21T13:11:29.300Z,4.32
2023-03-21T13:14:00.573Z,3.40
2023-03-21T13:16:35.712Z,4.25
2023-03-21T13:19:27.848Z,3.85
2023-03-21T13:21:59.699Z,3.53
2023-03-21T13:24:29.595Z,3.60
2023-03-21T13:27:01.157Z,3.67
2023-03-21T13:29:33.526Z,3.28
2023-03-21T13:32:10.292Z,4.30
2023-03-21T13:34:40.618Z,3.85
2023-03-21T13:37:16.816Z,3.78
2023-03-21T13:39:47.380Z,3.45
2023-03-21T13:42:20.872Z,4.15
2023-03-21T13:44:54.258Z,3.53
2023-03-21T13:47:39.780Z,3.50
2023-03-21T13:50:10.110Z,3.35
2023-03-21T13:52:37.329Z,3.90
2023-03-21T13:55:14.956Z,3.17
2023-03-21T13:57:42.339Z,3.00
2023-03-21T14:00:13.965Z,2.75
2023-03-21T14:02:54.530Z,2.72
2023-03-21T14:05:24.965Z,2.92
2023-03-21T14:08:06.114Z,2.40
2023-03-21T14:10:43.632Z,2.53
2023-03-21T14:13:16.476Z,2.58
2023-03-21T14:15:55.370Z,2.70
2023-03-21T14:18:34.952Z,2.40
2023-03-21T14:21:23.797Z,2.30
2023-03-21T14:23:56.215Z,2.40
2023-03-21T14:26:25.539Z,2.00
2023-03-21T14:28:53.594Z,1.60
2023-03-21T14:31:21.890Z,1.48
2023-03-21T14:33:54.229Z,1.52
2023-03-21T14:36:25.865Z,1.30
2023-03-21T14:38:58.294Z,1.38
2023-03-21T14:41:28.265Z,1.63
2023-03-21T14:43:58.525Z,1.60
2023-03-21T14:46:26.984Z,1.50
2023-03-21T14:48:54.248Z,1.85
2023-03-21T14:51:23.565Z,1.40
2023-03-21T14:53:50.868Z,1.48
2023-03-21T14:56:23.850Z,1.63
2023-03-21T14:58:53.584Z,1.45
2023-03-21T15:01:29.161Z,1.50
2023-03-21T15:04:00.355Z,1.50
2023-03-21T15:06:27.723Z,1.33
2023-03-21T15:08:58.395Z,1.50
2023-03-21T15:11:28.687Z,1.60
2023-03-21T15:13:56.593Z,1.33
2023-03-21T15:16:24.192Z,1.40
2023-03-21T15:18:52.475Z,1.48
2023-03-21T15:21:27.982Z,1.60
2023-03-21T15:24:00.665Z,1.60
2023-03-21T15:26:31.746Z,1.90
2023-03-21T15:29:00.415Z,1.30
2023-03-21T15:31:31.122Z,1.38
2023-03-21T15:33:58.615Z,1.40
2023-03-21T15:36:29.064Z,1.77
2023-03-21T15:38:56.904Z,1.40
2023-03-21T15:41:29.264Z,1.40
2023-03-21T15:44:01.755Z,1.50
2023-03-21T15:46:32.450Z,1.90
2023-03-21T15:49:02.761Z,1.80
2023-03-21T15:51:32.184Z,1.75
2023-03-21T15:54:00.681Z,1.60
2023-03-21T15:56:34.809Z,1.80
2023-03-21T15:59:03.866Z,1.63
2023-03-21T16:01:38.972Z,2.00
2023-03-21T16:04:10.083Z,1.98
2023-03-21T16:06:39.674Z,1.42
2023-03-21T16:09:14.570Z,1.70
2023-03-21T16:11:44.051Z,1.60
2023-03-21T16:14:11.284Z,2.03
2023-03-21T16:16:38.574Z,1.50
2023-03-21T16:19:07.293Z,1.65
2023-03-21T16:21:38.223Z,1.80
2023-03-21T16:24:08.749Z,1.67
2023-03-21T16:26:43.080Z,1.63
2023-03-21T16:29:13.523Z,1.80
2023-03-21T16:31:40.934Z,1.52
2023-03-21T16:34:08.325Z,1.73
2023-03-21T16:36:38.301Z,1.60
2023-03-21T16:39:14.301Z,1.80
2023-03-21T16:41:41.551Z,2.22
2023-03-21T16:44:08.852Z,2.00
2023-03-21T16:46:36.512Z,2.22
2023-03-21T16:49:03.968Z,2.45
2023-03-21T16:51:34.175Z,2.40
2023-03-21T16:54:01.909Z,1.48
2023-03-21T16:56:34.047Z,2.00
2023-03-21T16:59:01.240Z,1.88
2023-03-21T17:01:30.193Z,1.60
2023-03-21T17:03:58.162Z,1.70
2023-03-21T17:06:27.878Z,2.10
2023-03-21T17:08:58.789Z,1.67
2023-03-21T17:11:31.565Z,2.20
2023-03-21T17:13:58.863Z,1.50
2023-03-21T17:16:27.044Z,1.77
2023-03-21T17:18:55.329Z,1.92
2023-03-21T17:21:25.449Z,1.48
2023-03-21T17:23:53.667Z,1.92
2023-03-21T17:26:24.491Z,1.58
2023-03-21T17:28:54.826Z,1.70
2023-03-21T17:31:24.623Z,1.90
2023-03-21T17:33:54.381Z,1.80
2023-03-21T17:36:31.355Z,1.80
2023-03-21T17:38:59.023Z,2.25
2023-03-21T17:41:26.691Z,1.80
2023-03-21T17:43:56.064Z,1.65
2023-03-21T17:46:25.820Z,1.63
2023-03-21T17:48:53.639Z,2.05
2023-03-21T17:51:23.065Z,2.30
2023-03-21T17:53:51.189Z,2.00
2023-03-21T17:56:23.033Z,1.77
2023-03-21T17:58:50.210Z,2.03
2023-03-21T18:01:17.432Z,1.85
2023-03-21T18:03:44.780Z,2.13
2023-03-21T18:06:16.405Z,1.95
2023-03-21T18:08:44.819Z,2.30
2023-03-21T18:11:13.062Z,2.40
2023-03-21T18:13:42.281Z,2.13
2023-03-21T18:16:14.803Z,2.50
2023-03-21T18:18:42.812Z,2.60
2023-03-21T18:21:10.941Z,2.55
2023-03-21T18:23:39.630Z,2.30
2023-03-21T18:26:08.571Z,2.20
2023-03-21T18:28:39.556Z,2.72
2023-03-21T18:31:15.769Z,2.17
2023-03-21T18:33:47.252Z,1.88
2023-03-21T18:36:24.474Z,1.85
2023-03-21T18:38:52.871Z,2.30
2023-03-21T18:41:21.206Z,2.70
2023-03-21T18:44:15.031Z,2.40
2023-03-21T18:46:37.162Z,2.30
2023-03-21T18:49:42.090Z,2.10
2023-03-21T18:51:52.749Z,1.95
2023-03-21T18:54:20.652Z,2.20
2023-03-21T18:57:34.521Z,2.03
2023-03-21T18:59:39.516Z,2.83
2023-03-21T19:02:07.630Z,3.03
2023-03-21T19:04:37.523Z,3.08
2023-03-21T19:07:05.229Z,3.17
2023-03-21T19:09:52.252Z,3.15
2023-03-21T19:12:21.275Z,3.00
2023-03-21T19:14:48.465Z,2.60
2023-03-21T19:18:07.813Z,2.70
2023-03-21T19:20:04.421Z,3.30
2023-03-21T19:22:31.845Z,3.25
2023-03-21T19:24:59.144Z,3.38
2023-03-21T19:27:27.181Z,3.05
2023-03-21T19:30:10.868Z,3.25
2023-03-21T19:32:41.363Z,2.83
2023-03-21T19:35:09.479Z,3.38
2023-03-21T19:37:36.816Z,3.10
2023-03-21T19:40:06.954Z,3.00
2023-03-21T19:42:36.398Z,2.58
2023-03-21T19:45:05.457Z,2.50
2023-03-21T19:47:32.965Z,2.50
2023-03-21T19:52:47.688Z,2.40
2023-03-21T19:55:15.113Z,2.50
2023-03-21T19:57:42.479Z,2.30
2023-03-21T20:00:11.682Z,2.70
2023-03-21T20:02:39.656Z,2.50
2023-03-21T20:05:07.905Z,2.35
2023-03-21T20:07:35.588Z,2.63
2023-03-21T20:10:02.849Z,2.60
2023-03-21T20:12:32.171Z,2.50
2023-03-21T20:15:12.198Z,2.35
2023-03-21T20:17:44.008Z,2.50
2023-03-21T20:20:15.385Z,2.42
2023-03-21T20:23:05.745Z,2.10
2023-03-21T20:25:32.828Z,2.92
2023-03-21T20:28:15.184Z,2.22
2023-03-21T20:30:47.036Z,2.70
2023-03-21T20:33:14.229Z,2.53
2023-03-21T20:38:31.096Z,2.92
2023-03-21T20:40:59.149Z,2.30
2023-03-21T20:44:14.326Z,2.83
2023-03-21T20:46:16.295Z,3.17
2023-03-21T20:48:43.461Z,3.17
2023-03-21T20:53:59.726Z,4.10
2023-03-21T20:56:27.121Z,5.15
2023-03-21T20:59:11.800Z,4.85
2023-03-21T21:01:43.336Z,6.07
2023-03-21T21:04:11.669Z,6.30
2023-03-21T21:06:39.312Z,6.30
2023-03-21T21:09:06.679Z,6.72
2023-03-21T21:14:21.082Z,5.85
2023-03-21T21:16:48.340Z,4.90
2023-03-21T21:19:21.867Z,4.43
2023-03-21T21:21:49.999Z,5.53
2023-03-21T21:24:17.123Z,6.00
2023-03-21T21:26:46.557Z,5.32
2023-03-21T21:29:16.821Z,5.93
2023-03-21T21:31:46.978Z,5.88
2023-03-21T21:34:15.787Z,5.95
2023-03-21T21:39:09.413Z,6.22
2023-03-21T21:41:36.730Z,5.95
2023-03-21T21:44:03.870Z,5.38
2023-03-21T21:46:31.851Z,6.55
2023-03-21T21:48:59.817Z,6.63
2023-03-21T21:51:27.507Z,6.88
2023-03-21T21:53:56.073Z,6.68
2023-03-21T21:56:24.455Z,7.60
2023-03-21T21:58:53.353Z,6.85
2023-03-21T22:01:21.256Z,8.18
2023-03-21T22:03:48.914Z,7.97
2023-03-21T22:06:16.134Z,8.07
2023-03-21T22:08:46.939Z,8.05
2023-03-21T22:11:16.058Z,7.65
2023-03-21T22:13:43.664Z,7.03
2023-03-21T22:16:11.866Z,7.50
2023-03-21T22:18:39.303Z,6.88
2023-03-21T22:21:07.170Z,7.10
2023-03-21T22:23:34.582Z,6.28
2023-03-21T22:26:02.172Z,7.05
2023-03-21T22:28:29.308Z,7.35
2023-03-21T22:30:56.617Z,7.32
2023-03-21T22:33:24.069Z,7.60
2023-03-21T22:35:52.795Z,7.60
2023-03-21T22:38:24.581Z,6.90
2023-03-21T22:40:57.489Z,7.05
2023-03-21T22:43:24.868Z,7.70
2023-03-21T22:45:52.763Z,6.97
2023-03-21T22:48:21.175Z,7.35
2023-03-21T22:50:48.583Z,5.88
2023-03-21T22:53:15.992Z,7.15
2023-03-21T22:55:43.210Z,6.05
2023-03-21T22:58:10.393Z,7.85
2023-03-21T23:00:38.338Z,7.75
2023-03-21T23:03:06.058Z,7.40
2023-03-21T23:05:33.305Z,6.60
2023-03-21T23:08:00.594Z,6.68
2023-03-21T23:10:27.798Z,6.63
2023-03-21T23:12:55.157Z,6.68
2023-03-21T23:15:22.433Z,6.70
2023-03-21T23:17:49.750Z,6.57
2023-03-21T23:20:17.030Z,6.90
2023-03-21T23:22:44.353Z,6.85
2023-03-21T23:25:12.035Z,7.25
2023-03-21T23:27:39.392Z,6.57
2023-03-21T23:30:07.820Z,6.00
2023-03-21T23:32:35.429Z,7.50
2023-03-21T23:35:02.556Z,5.00
2023-03-21T23:37:33.031Z,4.63
2023-03-21T23:40:00.229Z,5.80
2023-03-21T23:42:30.496Z,6.53
2023-03-21T23:44:58.048Z,6.40
2023-03-21T23:47:25.243Z,4.97
2023-03-21T23:49:52.933Z,5.90
2023-03-21T23:52:20.109Z,5.88
2023-03-21T23:54:47.316Z,5.05
2023-03-21T23:57:14.493Z,5.03
2023-03-21T23:59:41.844Z,4.90
